6NY3 weather

Airy-Acres Airport
Interlaken, New York, United States

Public forecast

Using degrees Fahrenheit for public forecast. Weather courtesy of forecast.io.

Closest aviation weather report (METAR) to Airy-Acres Airport

Closest report is Penn Yan Airport, 14.3 nm (26.4 km) W. Retrieved 2020/04/03 00:53 UTC (60 minutes ago):

KPEO 030053Z AUTO 31007KT 10SM CLR 08/M06 A2987 RMK AO2 SLP120 T00831056

Closest aviation forecast (TAF) to Airy-Acres Airport

Closest forecast is Ithaca Tompkins Regional Airport, 15.1 nm (28.0 km) SE. Retrieved 2020-04-03 00:22 UTC (2 hours ago):

TAF KITH 022320Z 0300/0324 32013KT P6SM BKN035 FM030500 33010KT P6SM OVC025 FM030700 32012KT P6SM OVC015 FM030900 32015KT 5SM BR OVC008